Gill, South Dakota
Current Conditions -  °F | °C
As of 5:55 AM on Thursday 27 Nov 2014 (Local Time) from KSPF Reporting Station
Haze Haze  
Wind Chill: 19°   Ceiling: 200
Heat Index: 19°   Visibility: 2mi
Dew Point: 18°   Wind: 0mph
Humidity: 93%   Direction: NA
Pressure: 30.07"   Gusts: NA
Location:  44.9094°N, 103.193°W
Report Text: KSPF 271255Z AUTO 00000KT 2SM BR OVC002 M07/M08 A3007 RMK AO2
Loading
Personal Weather Stations






























Interactive Weather Map New forecast layout! Learn more

10-Day Weather Forecast

Advertisements
Track Severe Weather on mobile